createdAt,value
2022-09-12T00:01:36.303Z,19.26
2022-09-12T00:04:05.038Z,19.25
2022-09-12T00:06:37.212Z,19.23
2022-09-12T00:09:09.674Z,19.21
2022-09-12T00:11:40.352Z,19.19
2022-09-12T00:14:11.208Z,19.17
2022-09-12T00:16:40.323Z,19.14
2022-09-12T00:19:10.367Z,19.11
2022-09-12T00:21:40.894Z,19.09
2022-09-12T00:24:10.087Z,19.07
2022-09-12T00:26:38.980Z,19.04
2022-09-12T00:29:07.767Z,19.02
2022-09-12T00:31:37.104Z,19.00
2022-09-12T00:34:05.652Z,19.00
2022-09-12T00:36:34.550Z,18.99
2022-09-12T00:39:04.386Z,18.98
2022-09-12T00:41:36.002Z,18.98
2022-09-12T00:44:27.537Z,18.99
2022-09-12T00:47:05.338Z,19.00
2022-09-12T00:49:52.667Z,19.02
2022-09-12T00:52:30.056Z,19.03
2022-09-12T00:55:26.796Z,19.03
2022-09-12T00:58:04.838Z,19.04
2022-09-12T01:00:34.203Z,19.03
2022-09-12T01:03:09.497Z,19.00
2022-09-12T01:05:44.777Z,18.99
2022-09-12T01:08:13.679Z,18.97
2022-09-12T01:10:43.354Z,18.95
2022-09-12T01:13:11.973Z,18.90
2022-09-12T01:15:41.476Z,18.88
2022-09-12T01:18:15.496Z,18.87
2022-09-12T01:20:56.158Z,18.84
2022-09-12T01:23:45.740Z,18.82
2022-09-12T01:26:40.532Z,18.75
2022-09-12T01:29:27.961Z,18.67
2022-09-12T01:32:13.375Z,18.61
2022-09-12T01:34:47.965Z,18.57
2022-09-12T01:37:25.373Z,18.55
2022-09-12T01:40:03.633Z,18.54
2022-09-12T01:42:41.442Z,18.55
2022-09-12T01:45:15.783Z,18.55
2022-09-12T01:48:03.582Z,18.53
2022-09-12T01:50:38.407Z,18.53
2022-09-12T01:53:19.733Z,18.52
2022-09-12T01:56:07.861Z,18.53
2022-09-12T01:59:01.244Z,18.55
2022-09-12T02:01:36.998Z,18.55
2022-09-12T02:04:21.264Z,18.58
2022-09-12T02:06:55.872Z,18.63
2022-09-12T02:09:27.323Z,18.66
2022-09-12T02:11:59.596Z,18.66
2022-09-12T02:14:32.989Z,18.64
2022-09-12T02:17:02.911Z,18.62
2022-09-12T02:19:43.993Z,18.61
2022-09-12T02:22:17.562Z,18.57
2022-09-12T02:24:48.523Z,18.52
2022-09-12T02:27:47.010Z,18.47
2022-09-12T02:30:17.007Z,18.44
2022-09-12T02:33:04.350Z,18.42
2022-09-12T02:35:40.616Z,18.39
2022-09-12T02:38:25.073Z,18.36
2022-09-12T02:40:54.576Z,18.33
2022-09-12T02:43:23.264Z,18.30
2022-09-12T02:45:52.151Z,18.27
2022-09-12T02:48:26.991Z,18.24
2022-09-12T02:50:55.877Z,18.23
2022-09-12T02:53:24.675Z,18.23
2022-09-12T02:55:54.016Z,18.22
2022-09-12T02:58:27.583Z,18.22
2022-09-12T03:01:34.313Z,18.23
2022-09-12T03:04:21.467Z,18.24
2022-09-12T03:06:59.166Z,18.26
2022-09-12T03:10:01.950Z,18.27
2022-09-12T03:12:36.657Z,18.28
2022-09-12T03:15:15.708Z,18.29
2022-09-12T03:18:07.022Z,18.30
2022-09-12T03:20:46.363Z,18.29
2022-09-12T03:23:37.582Z,18.28
2022-09-12T03:26:25.212Z,18.27
2022-09-12T03:28:56.329Z,18.24
2022-09-12T03:31:25.142Z,18.21
2022-09-12T03:33:53.939Z,18.16
2022-09-12T03:36:29.383Z,18.12
2022-09-12T03:38:57.962Z,18.05
2022-09-12T03:41:26.544Z,18.00
2022-09-12T03:43:57.285Z,17.98
2022-09-12T03:46:26.272Z,17.94
2022-09-12T03:48:55.060Z,17.91
2022-09-12T03:51:23.850Z,17.89
2022-09-12T03:53:52.639Z,17.86
2022-09-12T03:56:21.940Z,17.84
2022-09-12T03:58:50.629Z,17.81
2022-09-12T04:01:20.916Z,17.80
2022-09-12T04:03:52.608Z,17.77
2022-09-12T04:06:23.682Z,17.72
2022-09-12T04:08:54.447Z,17.68
2022-09-12T04:11:24.505Z,17.70
2022-09-12T04:13:53.291Z,17.74
2022-09-12T04:16:22.412Z,17.78
2022-09-12T04:18:51.014Z,17.82
2022-09-12T04:21:22.506Z,17.86
2022-09-12T04:23:51.423Z,17.90
2022-09-12T04:26:21.483Z,17.94
2022-09-12T04:28:55.347Z,17.96
2022-09-12T04:31:25.874Z,17.98
2022-09-12T04:33:57.174Z,17.99
2022-09-12T04:36:28.454Z,18.00
2022-09-12T04:38:57.261Z,18.02
2022-09-12T04:41:28.783Z,18.02
2022-09-12T04:44:02.589Z,18.02
2022-09-12T04:46:35.509Z,18.05
2022-09-12T04:49:04.295Z,18.10
2022-09-12T04:51:36.258Z,18.16
2022-09-12T04:54:08.656Z,18.23
2022-09-12T04:56:40.130Z,18.29
2022-09-12T04:59:09.488Z,18.33
2022-09-12T05:01:38.296Z,18.37
2022-09-12T05:04:07.169Z,18.41
2022-09-12T05:06:37.614Z,18.45
2022-09-12T05:09:08.638Z,18.47
2022-09-12T05:12:03.332Z,18.48
2022-09-12T05:14:30.072Z,18.49
2022-09-12T05:17:01.017Z,18.49
2022-09-12T05:19:31.328Z,18.49
2022-09-12T05:22:00.843Z,18.49
2022-09-12T05:24:29.529Z,18.49
2022-09-12T05:26:58.216Z,18.52
2022-09-12T05:29:27.005Z,18.55
2022-09-12T05:31:55.954Z,18.59
2022-09-12T05:34:25.104Z,18.63
2022-09-12T05:36:54.000Z,18.68
2022-09-12T05:39:24.004Z,18.73
2022-09-12T05:41:52.588Z,18.78
2022-09-12T05:44:21.580Z,18.84
2022-09-12T05:46:51.734Z,18.91
2022-09-12T05:49:21.982Z,18.96
2022-09-12T05:51:51.938Z,18.99
2022-09-12T05:54:21.656Z,19.02
2022-09-12T05:56:50.353Z,19.04
2022-09-12T05:59:21.376Z,19.02
2022-09-12T06:01:50.588Z,19.01
2022-09-12T06:04:19.376Z,19.03
2022-09-12T06:06:49.061Z,19.02
2022-09-12T06:09:18.892Z,19.03
2022-09-12T06:11:48.193Z,19.05
2022-09-12T06:14:20.044Z,19.08
2022-09-12T06:16:48.978Z,19.08
2022-09-12T06:19:20.574Z,19.08
2022-09-12T06:21:52.032Z,19.15
2022-09-12T06:24:22.173Z,19.25
2022-09-12T06:26:53.008Z,19.32
2022-09-12T06:29:22.619Z,19.37
2022-09-12T06:31:51.407Z,19.42
2022-09-12T06:34:20.401Z,19.48
2022-09-12T06:36:50.313Z,19.53
2022-09-12T06:39:21.739Z,19.59
2022-09-12T06:41:51.995Z,19.64
2022-09-12T06:44:32.042Z,19.67
2022-09-12T06:47:00.525Z,19.72
2022-09-12T06:49:29.640Z,19.74
2022-09-12T06:51:59.131Z,19.75
2022-09-12T06:54:28.124Z,19.73
2022-09-12T06:56:57.014Z,19.72
2022-09-12T06:59:26.004Z,19.72
2022-09-12T07:01:54.994Z,19.71
2022-09-12T07:04:23.889Z,19.69
2022-09-12T07:06:52.477Z,19.69
2022-09-12T07:09:21.513Z,19.71
2022-09-12T07:11:50.054Z,19.70
2022-09-12T07:14:18.637Z,19.67
2022-09-12T07:16:47.288Z,19.63
2022-09-12T07:19:16.110Z,19.61
2022-09-12T07:21:44.799Z,19.59
2022-09-12T07:24:13.688Z,19.59
2022-09-12T07:26:43.046Z,19.60
2022-09-12T07:32:07.608Z,19.73
2022-09-12T07:34:37.814Z,19.77
2022-09-12T07:37:08.247Z,19.85
2022-09-12T07:39:38.267Z,19.92
2022-09-12T07:42:07.473Z,20.02
2022-09-12T07:44:36.054Z,20.12
2022-09-12T07:47:05.253Z,20.21
2022-09-12T07:49:33.837Z,20.30
2022-09-12T07:52:03.239Z,20.37
2022-09-12T07:54:33.667Z,20.43
2022-09-12T07:57:02.566Z,20.48
2022-09-12T07:59:51.569Z,20.52
2022-09-12T08:02:20.760Z,20.58
2022-09-12T08:04:49.720Z,20.62
2022-09-12T08:07:19.530Z,20.66
2022-09-12T08:09:48.827Z,20.70
2022-09-12T08:12:18.331Z,20.74
2022-09-12T08:14:47.225Z,20.79
2022-09-12T08:17:16.017Z,20.85
2022-09-12T08:19:45.539Z,20.88
2022-09-12T08:22:14.869Z,20.92
2022-09-12T08:24:44.543Z,20.99
2022-09-12T08:27:13.319Z,21.05
2022-09-12T08:29:42.312Z,21.15
2022-09-12T08:32:11.101Z,21.24
2022-09-12T08:34:39.687Z,21.33
2022-09-12T08:37:08.269Z,21.44
2022-09-12T08:39:37.552Z,21.54
2022-09-12T08:42:07.604Z,21.64
2022-09-12T08:44:51.636Z,21.74
2022-09-12T08:47:31.941Z,21.84
2022-09-12T08:50:12.585Z,21.93
2022-09-12T08:52:44.731Z,22.00
2022-09-12T08:55:27.969Z,22.01
2022-09-12T08:57:56.851Z,22.07
2022-09-12T09:00:32.486Z,22.16
2022-09-12T09:03:10.513Z,22.28
2022-09-12T09:06:14.928Z,22.45
2022-09-12T09:08:49.048Z,22.60
2022-09-12T09:11:56.234Z,22.68
2022-09-12T09:14:52.874Z,22.72
2022-09-12T09:17:28.624Z,22.73
2022-09-12T09:20:10.629Z,22.74
2022-09-12T09:22:50.583Z,22.78
2022-09-12T09:25:42.969Z,22.86
2022-09-12T09:28:19.720Z,23.00
2022-09-12T09:30:49.279Z,23.10
2022-09-12T09:33:31.619Z,23.17
2022-09-12T09:36:45.047Z,23.24
2022-09-12T09:39:38.765Z,23.35
2022-09-12T09:42:22.659Z,23.50
2022-09-12T09:44:54.428Z,23.61
2022-09-12T09:47:23.410Z,23.69
2022-09-12T09:49:52.357Z,23.94
2022-09-12T09:52:28.066Z,24.11
2022-09-12T09:55:02.291Z,24.12
2022-09-12T09:57:37.348Z,24.06
2022-09-12T10:00:29.953Z,24.03
2022-09-12T10:03:13.828Z,24.07
2022-09-12T10:06:01.360Z,24.25
2022-09-12T10:08:39.331Z,24.38
2022-09-12T10:11:18.061Z,24.38
2022-09-12T10:13:49.830Z,24.22
2022-09-12T10:16:25.456Z,24.03
2022-09-12T10:18:56.927Z,23.89
2022-09-12T10:21:34.407Z,23.88
2022-09-12T10:24:21.625Z,23.92
2022-09-12T10:26:57.406Z,23.84
2022-09-12T10:29:31.704Z,23.77
2022-09-12T10:32:03.842Z,23.73
2022-09-12T10:34:39.923Z,23.71
2022-09-12T10:37:31.346Z,23.73
2022-09-12T10:40:01.961Z,23.70
2022-09-12T10:42:49.406Z,23.57
2022-09-12T10:45:26.392Z,23.42
2022-09-12T10:48:04.105Z,23.26
2022-09-12T10:50:43.608Z,23.19
2022-09-12T10:53:22.879Z,23.14
2022-09-12T10:55:54.541Z,23.08
2022-09-12T10:59:00.781Z,23.04
2022-09-12T11:01:47.240Z,23.04
2022-09-12T11:04:22.385Z,23.10
2022-09-12T11:07:06.368Z,23.25
2022-09-12T11:09:40.058Z,23.39
2022-09-12T11:12:17.768Z,23.46
2022-09-12T11:15:08.685Z,23.43
2022-09-12T11:17:44.125Z,23.37
2022-09-12T11:20:22.131Z,23.34
2022-09-12T11:23:13.202Z,23.33
2022-09-12T11:26:07.369Z,23.30
2022-09-12T11:28:56.900Z,23.26
2022-09-12T11:32:04.400Z,23.23
2022-09-12T11:34:53.664Z,23.17
2022-09-12T11:37:37.304Z,23.09
2022-09-12T11:40:34.011Z,23.01
2022-09-12T11:43:13.388Z,22.93
2022-09-12T11:45:45.390Z,22.89
2022-09-12T11:48:39.023Z,22.88
2022-09-12T11:51:18.518Z,22.90
2022-09-12T11:53:59.252Z,22.90
2022-09-12T11:56:28.120Z,22.90
2022-09-12T11:59:05.995Z,22.91
2022-09-12T12:01:46.365Z,22.90
2022-09-12T12:04:26.333Z,22.83
2022-09-12T12:07:05.105Z,22.46
2022-09-12T12:09:34.652Z,21.97
2022-09-12T12:12:09.643Z,21.45
2022-09-12T12:14:48.319Z,21.20
2022-09-12T12:17:23.662Z,20.96
2022-09-12T12:20:06.698Z,20.72
2022-09-12T12:22:38.032Z,20.36
2022-09-12T12:25:30.135Z,20.11
2022-09-12T12:28:05.792Z,19.85
2022-09-12T12:30:41.254Z,19.68
2022-09-12T12:33:15.687Z,19.70
2022-09-12T12:36:02.190Z,19.68
2022-09-12T12:38:37.428Z,19.73
2022-09-12T12:41:18.480Z,19.65
2022-09-12T12:43:52.477Z,19.59
2022-09-12T12:46:27.195Z,19.45
2022-09-12T12:49:02.074Z,19.44
2022-09-12T12:51:39.746Z,19.51
2022-09-12T12:54:42.458Z,19.52
2022-09-12T12:57:14.028Z,19.37
2022-09-12T13:00:26.527Z,19.36
2022-09-12T13:03:01.562Z,19.50
2022-09-12T13:05:39.464Z,19.64
2022-09-12T13:08:26.744Z,19.75
2022-09-12T13:11:06.959Z,19.67
2022-09-12T13:13:45.974Z,19.66
2022-09-12T13:16:30.947Z,19.74
2022-09-12T13:19:18.145Z,19.75
2022-09-12T13:22:06.918Z,19.67
2022-09-12T13:24:49.224Z,19.70
2022-09-12T13:27:26.010Z,19.79
2022-09-12T13:30:15.654Z,19.82
2022-09-12T13:32:44.983Z,19.68
2022-09-12T13:35:16.972Z,19.69
2022-09-12T13:38:02.425Z,19.68
2022-09-12T13:40:48.622Z,19.67
2022-09-12T13:43:41.277Z,19.71
2022-09-12T13:46:15.513Z,19.64
2022-09-12T13:48:44.927Z,19.55
2022-09-12T13:51:26.491Z,19.56
2022-09-12T13:53:59.678Z,19.53
2022-09-12T13:56:28.871Z,19.54
2022-09-12T13:59:01.506Z,19.55
2022-09-12T14:01:45.368Z,19.58
2022-09-12T14:04:40.123Z,19.25
2022-09-12T14:07:12.055Z,18.97
2022-09-12T14:09:44.944Z,18.80
2022-09-12T14:12:33.903Z,18.65
2022-09-12T14:15:03.413Z,18.55
2022-09-12T14:17:39.139Z,18.54
2022-09-12T14:20:14.806Z,18.49
2022-09-12T14:22:46.375Z,18.38
2022-09-12T14:25:22.420Z,18.31
2022-09-12T14:27:57.249Z,18.29
2022-09-12T14:30:32.258Z,18.29
2022-09-12T14:33:12.963Z,18.34
2022-09-12T14:35:44.479Z,18.33
2022-09-12T14:38:16.164Z,18.34
2022-09-12T14:41:08.919Z,18.32
2022-09-12T14:43:51.118Z,18.35
2022-09-12T14:46:25.394Z,18.35
2022-09-12T14:48:59.355Z,18.34
2022-09-12T14:51:34.265Z,18.30
2022-09-12T14:54:03.271Z,18.27
2022-09-12T14:57:06.988Z,18.28
2022-09-12T14:59:35.756Z,18.22
2022-09-12T15:02:22.691Z,18.19
2022-09-12T15:05:12.770Z,18.16
2022-09-12T15:08:01.123Z,18.14
2022-09-12T15:10:31.638Z,18.12
2022-09-12T15:13:06.378Z,18.12
2022-09-12T15:15:36.650Z,18.13
2022-09-12T15:18:07.062Z,18.17
2022-09-12T15:20:41.119Z,18.22
2022-09-12T15:23:19.974Z,18.30
2022-09-12T15:25:49.058Z,18.37
2022-09-12T15:28:20.996Z,18.43
2022-09-12T15:30:53.066Z,18.51
2022-09-12T15:33:24.719Z,18.59
2022-09-12T15:35:53.948Z,18.70
2022-09-12T15:38:26.333Z,18.78
2022-09-12T15:40:56.235Z,18.86
2022-09-12T15:43:26.739Z,18.95
2022-09-12T15:45:55.389Z,18.99
2022-09-12T15:48:24.457Z,19.04
2022-09-12T15:50:53.437Z,19.06
2022-09-12T15:53:22.265Z,19.07
2022-09-12T15:55:51.225Z,19.06
2022-09-12T15:58:20.111Z,19.03
2022-09-12T16:00:49.107Z,18.96
2022-09-12T16:03:26.766Z,18.92
2022-09-12T16:06:03.848Z,18.89
2022-09-12T16:08:33.306Z,18.86
2022-09-12T16:11:13.241Z,18.85
2022-09-12T16:13:41.928Z,18.82
2022-09-12T16:16:11.071Z,18.80
2022-09-12T16:18:41.070Z,18.78
2022-09-12T16:21:14.209Z,18.76
2022-09-12T16:23:45.275Z,18.76
2022-09-12T16:26:16.580Z,18.78
2022-09-12T16:28:46.118Z,18.75
2022-09-12T16:31:15.395Z,18.75
2022-09-12T16:33:44.129Z,18.75
2022-09-12T16:36:22.020Z,18.74
2022-09-12T16:39:22.660Z,18.73
2022-09-12T16:41:51.442Z,18.72
2022-09-12T16:44:20.576Z,18.67
2022-09-12T16:46:50.751Z,18.64
2022-09-12T16:49:19.556Z,18.61
2022-09-12T16:51:50.295Z,18.58
2022-09-12T16:54:21.521Z,18.57
2022-09-12T16:56:54.831Z,18.53
2022-09-12T16:59:23.826Z,18.50
2022-09-12T17:01:52.756Z,18.47
2022-09-12T17:04:23.670Z,18.47
2022-09-12T17:06:52.547Z,18.48
2022-09-12T17:09:22.362Z,18.51
2022-09-12T17:11:51.064Z,18.54
2022-09-12T17:14:19.948Z,18.59
2022-09-12T17:16:51.829Z,18.62
2022-09-12T17:19:30.190Z,18.66
2022-09-12T17:21:59.409Z,18.69
2022-09-12T17:24:28.197Z,18.70
2022-09-12T17:26:57.499Z,18.62
2022-09-12T17:29:26.194Z,18.39
2022-09-12T17:31:56.103Z,18.18
2022-09-12T17:34:24.906Z,17.97
2022-09-12T17:36:53.378Z,17.73
2022-09-12T17:39:22.057Z,17.65
2022-09-12T17:41:52.282Z,17.58
2022-09-12T17:44:20.967Z,17.53
2022-09-12T17:46:50.239Z,17.48
2022-09-12T17:49:21.308Z,17.46
2022-09-12T17:51:53.069Z,17.44
2022-09-12T17:54:22.582Z,17.42
2022-09-12T17:56:52.391Z,17.38
2022-09-12T17:59:25.084Z,17.38
2022-09-12T18:02:12.378Z,17.36
2022-09-12T18:04:42.492Z,17.35
2022-09-12T18:07:11.301Z,17.31
2022-09-12T18:09:41.626Z,17.24
2022-09-12T18:12:10.961Z,17.20
2022-09-12T18:14:39.739Z,17.19
2022-09-12T18:17:09.325Z,17.16
2022-09-12T18:19:38.680Z,17.10
2022-09-12T18:22:07.866Z,17.05
2022-09-12T18:24:36.818Z,16.95
2022-09-12T18:27:05.819Z,16.90
2022-09-12T18:29:34.604Z,16.83
2022-09-12T18:32:03.393Z,16.79
2022-09-12T18:34:32.081Z,16.76
2022-09-12T18:37:02.350Z,16.75
2022-09-12T18:39:31.089Z,16.71
2022-09-12T18:41:59.774Z,16.70
2022-09-12T18:44:28.564Z,16.66
2022-09-12T18:46:57.368Z,16.65
2022-09-12T18:49:26.158Z,16.62
2022-09-12T18:51:54.933Z,16.61
2022-09-12T18:54:23.720Z,16.61
2022-09-12T18:56:52.302Z,16.57
2022-09-12T18:59:21.223Z,16.51
2022-09-12T19:01:50.848Z,16.45
2022-09-12T19:04:19.592Z,16.42
2022-09-12T19:06:49.129Z,16.41
2022-09-12T19:09:21.362Z,16.39
2022-09-12T19:11:50.356Z,16.37
2022-09-12T19:14:25.212Z,16.35
2022-09-12T19:16:54.433Z,16.31
2022-09-12T19:19:23.898Z,16.28
2022-09-12T19:21:52.687Z,16.26
2022-09-12T19:24:22.296Z,16.24
2022-09-12T19:26:52.212Z,16.20
2022-09-12T19:29:20.895Z,16.18
2022-09-12T19:31:49.793Z,16.16
2022-09-12T19:34:18.576Z,16.16
2022-09-12T19:36:47.646Z,16.17
2022-09-12T19:39:20.085Z,16.16
2022-09-12T19:41:49.598Z,16.15
2022-09-12T19:44:21.315Z,16.16
2022-09-12T19:46:50.406Z,16.18
2022-09-12T19:49:18.910Z,16.17
2022-09-12T19:51:47.575Z,16.17
2022-09-12T19:54:16.260Z,16.17
2022-09-12T19:56:44.970Z,16.18
2022-09-12T19:59:13.529Z,16.17
2022-09-12T20:01:42.256Z,16.15
2022-09-12T20:04:14.157Z,16.15
2022-09-12T20:06:43.176Z,16.17
2022-09-12T20:09:12.124Z,16.19
2022-09-12T20:11:40.959Z,16.22
2022-09-12T20:14:10.059Z,16.26
2022-09-12T20:16:38.842Z,16.30
2022-09-12T20:19:08.860Z,16.35
2022-09-12T20:21:37.650Z,16.40
2022-09-12T20:24:10.535Z,16.46
2022-09-12T20:26:40.380Z,16.49
2022-09-12T20:29:10.575Z,16.51
2022-09-12T20:31:41.244Z,16.53
2022-09-12T20:34:16.806Z,16.52
2022-09-12T20:36:46.509Z,16.52
2022-09-12T20:39:19.333Z,16.52
2022-09-12T20:41:48.549Z,16.50
2022-09-12T20:44:17.239Z,16.49
2022-09-12T20:46:45.888Z,16.46
2022-09-12T20:49:14.811Z,16.42
2022-09-12T20:51:43.499Z,16.38
2022-09-12T20:54:12.245Z,16.34
2022-09-12T20:56:40.875Z,16.32
2022-09-12T20:59:12.373Z,16.29
2022-09-12T21:01:41.329Z,16.27
2022-09-12T21:04:14.381Z,16.26
2022-09-12T21:06:44.217Z,16.23
2022-09-12T21:09:13.212Z,16.21
2022-09-12T21:11:42.153Z,16.19
2022-09-12T21:14:11.201Z,16.16
2022-09-12T21:16:39.989Z,16.14
2022-09-12T21:19:08.837Z,16.12
2022-09-12T21:21:37.980Z,16.10
2022-09-12T21:24:07.290Z,16.08
2022-09-12T21:26:36.166Z,16.07
2022-09-12T21:29:04.958Z,16.05
2022-09-12T21:31:33.835Z,16.03
2022-09-12T21:34:03.357Z,16.01
2022-09-12T21:36:31.990Z,15.99
2022-09-12T21:39:00.946Z,15.97
2022-09-12T21:41:29.624Z,15.96
2022-09-12T21:43:58.509Z,15.94
2022-09-12T21:46:27.434Z,15.92
2022-09-12T21:48:56.295Z,15.91
2022-09-12T21:51:25.079Z,15.89
2022-09-12T21:53:53.665Z,15.88
2022-09-12T21:56:22.556Z,15.85
2022-09-12T21:58:51.346Z,15.84
2022-09-12T22:01:20.077Z,15.83
2022-09-12T22:03:50.457Z,15.83
2022-09-12T22:06:22.418Z,15.82
2022-09-12T22:08:51.827Z,15.83
2022-09-12T22:11:20.927Z,15.85
2022-09-12T22:13:50.075Z,15.88
2022-09-12T22:16:19.031Z,15.92
2022-09-12T22:18:48.005Z,15.95
2022-09-12T22:21:19.426Z,15.98
2022-09-12T22:24:06.787Z,16.00
2022-09-12T22:26:46.833Z,16.04
2022-09-12T22:29:15.523Z,16.07
2022-09-12T22:31:45.173Z,16.08
2022-09-12T22:34:14.531Z,16.09
2022-09-12T22:36:43.119Z,16.09
2022-09-12T22:39:12.008Z,16.09
2022-09-12T22:41:40.799Z,16.08
2022-09-12T22:44:10.959Z,16.07
2022-09-12T22:46:40.005Z,16.04
2022-09-12T22:49:09.009Z,16.01
2022-09-12T22:51:38.104Z,15.98
2022-09-12T22:54:07.769Z,15.96
2022-09-12T22:56:36.606Z,15.92
2022-09-12T22:59:05.597Z,15.89
2022-09-12T23:01:36.075Z,15.85
2022-09-12T23:04:05.836Z,15.81
2022-09-12T23:06:34.932Z,15.77
2022-09-12T23:09:04.137Z,15.73
2022-09-12T23:11:32.953Z,15.69
2022-09-12T23:14:01.914Z,15.64
2022-09-12T23:16:32.494Z,15.57
2022-09-12T23:19:01.340Z,15.48
2022-09-12T23:21:30.536Z,15.44
2022-09-12T23:23:59.323Z,15.36
2022-09-12T23:26:30.982Z,15.30
2022-09-12T23:29:02.101Z,15.25
2022-09-12T23:31:32.800Z,15.22
2022-09-12T23:34:04.897Z,15.21
2022-09-12T23:36:34.618Z,15.19
2022-09-12T23:39:03.751Z,15.17
2022-09-12T23:41:32.930Z,15.15
2022-09-12T23:44:02.332Z,15.14
2022-09-12T23:46:30.917Z,15.13
2022-09-12T23:48:59.512Z,15.11
2022-09-12T23:51:28.289Z,15.09
2022-09-12T23:53:56.880Z,15.06
2022-09-12T23:56:25.564Z,15.05
2022-09-12T23:58:54.145Z,15.05
